createdAt,value
2023-05-01T10:14:29.845Z,13.40
2023-05-01T10:16:58.168Z,13.80
2023-05-01T10:19:26.091Z,14.10
2023-05-01T10:21:53.761Z,14.30
2023-05-01T10:24:22.266Z,14.50
2023-05-01T10:26:50.993Z,14.70
2023-05-01T10:29:21.042Z,14.80
2023-05-01T10:31:48.775Z,15.00
2023-05-01T10:34:20.185Z,15.20
2023-05-01T10:36:58.990Z,15.30
2023-05-01T10:39:34.064Z,15.40
2023-05-01T10:42:11.343Z,15.50
2023-05-01T10:44:39.213Z,15.80
2023-05-01T10:47:43.127Z,16.10
2023-05-01T10:50:12.915Z,16.20
2023-05-01T10:53:14.695Z,16.10
2023-05-01T10:55:45.195Z,16.00
2023-05-01T10:58:14.811Z,15.90
2023-05-01T11:00:42.474Z,15.80
2023-05-01T11:03:30.833Z,15.70
2023-05-01T11:06:03.899Z,15.60
2023-05-01T11:08:37.791Z,15.60
2023-05-01T11:11:23.494Z,15.60
2023-05-01T11:14:02.266Z,15.60
2023-05-01T11:16:46.835Z,15.60
2023-05-01T11:19:23.843Z,15.30
2023-05-01T11:21:51.761Z,15.10
2023-05-01T11:24:19.779Z,14.90
2023-05-01T11:26:48.696Z,14.80
2023-05-01T11:29:18.267Z,14.80
2023-05-01T11:31:51.548Z,14.80
2023-05-01T11:34:19.419Z,14.80
2023-05-01T11:36:52.640Z,14.80
2023-05-01T11:39:22.307Z,14.80
2023-05-01T11:41:50.405Z,14.90
2023-05-01T11:44:20.344Z,15.00
2023-05-01T11:47:01.286Z,15.20
2023-05-01T11:49:29.755Z,15.30
2023-05-01T11:51:58.503Z,15.50
2023-05-01T11:54:27.131Z,15.40
2023-05-01T11:57:00.199Z,15.30
2023-05-01T11:59:28.205Z,15.00
2023-05-01T12:01:55.949Z,14.80
2023-05-01T12:04:29.715Z,14.80
2023-05-01T12:06:59.585Z,14.90
2023-05-01T12:09:28.668Z,15.00
2023-05-01T12:11:59.796Z,15.00
2023-05-01T12:14:27.864Z,15.10
2023-05-01T12:16:55.705Z,15.30
2023-05-01T12:19:24.103Z,15.30
2023-05-01T12:22:07.033Z,15.30
2023-05-01T12:24:35.007Z,15.30
2023-05-01T12:27:03.638Z,15.30
2023-05-01T12:29:41.911Z,15.30
2023-05-01T12:32:10.313Z,15.20
2023-05-01T12:34:38.636Z,15.20
2023-05-01T12:37:06.461Z,15.00
2023-05-01T12:39:42.679Z,14.80
2023-05-01T12:42:14.924Z,14.70
2023-05-01T12:44:43.840Z,14.60
2023-05-01T12:47:12.318Z,14.50
2023-05-01T12:49:40.721Z,14.40
2023-05-01T12:52:09.257Z,14.40
2023-05-01T12:54:39.335Z,14.30
2023-05-01T12:57:12.244Z,14.30
2023-05-01T12:59:41.912Z,14.30
2023-05-01T13:02:12.357Z,14.30
2023-05-01T13:04:41.114Z,14.30
2023-05-01T13:07:19.339Z,14.40
2023-05-01T13:10:00.437Z,14.50
2023-05-01T13:12:30.749Z,14.70
2023-05-01T13:14:59.295Z,14.80
2023-05-01T13:17:31.960Z,15.00
2023-05-01T13:20:05.258Z,15.10
2023-05-01T13:22:35.089Z,15.10
2023-05-01T13:25:04.518Z,15.10
2023-05-01T13:27:32.659Z,15.10
2023-05-01T13:30:01.174Z,15.10
2023-05-01T13:32:29.153Z,15.20
2023-05-01T13:35:01.498Z,15.20
2023-05-01T13:37:29.906Z,15.40
2023-05-01T13:40:01.141Z,15.70
2023-05-01T13:42:29.024Z,15.80
2023-05-01T13:44:57.812Z,16.00
2023-05-01T13:47:26.886Z,16.10
2023-05-01T13:49:54.897Z,16.20
2023-05-01T13:52:23.346Z,16.20
2023-05-01T13:54:55.868Z,16.30
2023-05-01T13:57:23.664Z,16.30
2023-05-01T13:59:51.663Z,16.30
2023-05-01T14:02:28.801Z,16.40
2023-05-01T14:04:58.585Z,16.50
2023-05-01T14:07:28.572Z,16.50
2023-05-01T14:09:58.035Z,16.40
2023-05-01T14:12:30.853Z,16.30
2023-05-01T14:15:01.255Z,16.20
2023-05-01T14:17:38.024Z,16.00
2023-05-01T14:20:07.255Z,15.80
2023-05-01T14:22:46.069Z,15.60
2023-05-01T14:25:29.222Z,15.50
2023-05-01T14:27:59.202Z,15.30
2023-05-01T14:30:37.359Z,15.30
2023-05-01T14:33:17.543Z,15.40
2023-05-01T14:35:50.427Z,15.60
2023-05-01T14:38:19.664Z,15.80
2023-05-01T14:40:48.432Z,15.90
2023-05-01T14:43:22.097Z,16.10
2023-05-01T14:45:50.099Z,16.20
2023-05-01T14:48:25.533Z,16.30
2023-05-01T14:50:55.104Z,16.40
2023-05-01T14:53:23.500Z,16.40
2023-05-01T14:55:52.424Z,16.40
2023-05-01T14:58:20.102Z,16.30
2023-05-01T15:00:47.706Z,16.30
2023-05-01T15:03:18.422Z,16.20
2023-05-01T15:05:46.260Z,16.20
2023-05-01T15:08:13.959Z,16.10
2023-05-01T15:10:42.828Z,16.10
2023-05-01T15:13:10.430Z,16.00
2023-05-01T15:15:38.112Z,16.00
2023-05-01T15:18:05.788Z,15.90
2023-05-01T15:20:33.519Z,15.80
2023-05-01T15:23:01.322Z,15.80
2023-05-01T15:25:28.957Z,15.60
2023-05-01T15:27:57.177Z,15.60
2023-05-01T15:30:25.205Z,15.40
2023-05-01T15:32:55.454Z,15.30
2023-05-01T15:35:23.855Z,15.10
2023-05-01T15:37:51.537Z,15.00
2023-05-01T15:40:19.351Z,14.90
2023-05-01T15:42:48.165Z,14.80
2023-05-01T15:45:15.891Z,14.70
2023-05-01T15:47:43.643Z,14.60
2023-05-01T15:50:11.993Z,14.60
2023-05-01T15:52:39.647Z,14.50
2023-05-01T15:55:07.566Z,14.50
2023-05-01T15:57:35.810Z,14.50
2023-05-01T16:00:04.692Z,14.40
2023-05-01T16:02:32.953Z,14.40
2023-05-01T16:05:00.816Z,14.40
2023-05-01T16:07:29.812Z,14.50
2023-05-01T16:09:58.341Z,14.50
2023-05-01T16:12:29.339Z,14.60
2023-05-01T16:14:57.201Z,14.70
2023-05-01T16:17:24.862Z,14.80
2023-05-01T16:19:52.860Z,14.90
2023-05-01T16:22:21.334Z,15.10
2023-05-01T16:24:49.070Z,15.20
2023-05-01T16:27:18.315Z,15.30
2023-05-01T16:29:46.014Z,15.20
2023-05-01T16:32:16.939Z,15.10
2023-05-01T16:34:44.937Z,15.00
2023-05-01T16:37:15.179Z,14.90
2023-05-01T16:39:42.790Z,14.90
2023-05-01T16:42:13.338Z,14.80
2023-05-01T16:44:41.473Z,14.70
2023-05-01T16:47:11.849Z,14.60
2023-05-01T16:49:42.341Z,14.60
2023-05-01T16:52:14.205Z,14.50
2023-05-01T16:54:41.871Z,14.40
2023-05-01T16:57:09.573Z,14.40
2023-05-01T16:59:37.895Z,14.30
2023-05-01T17:02:06.594Z,14.30
2023-05-01T17:04:34.415Z,14.30
2023-05-01T17:07:02.071Z,14.40
2023-05-01T17:09:30.096Z,14.40
2023-05-01T17:11:59.053Z,14.40
2023-05-01T17:14:28.852Z,14.30
2023-05-01T17:17:03.632Z,14.30
2023-05-01T17:19:32.423Z,14.10
2023-05-01T17:22:00.067Z,14.20
2023-05-01T17:24:28.288Z,14.10
2023-05-01T17:26:57.539Z,14.00
2023-05-01T17:29:27.566Z,13.80
2023-05-01T17:39:08.450Z,13.40
2023-05-01T17:41:36.343Z,13.50
2023-05-01T17:54:57.470Z,13.40
2023-05-01T17:57:25.175Z,13.80
2023-05-01T17:59:52.756Z,14.00
2023-05-01T18:02:20.546Z,14.10
2023-05-01T18:04:50.225Z,13.90
2023-05-01T18:07:17.876Z,13.90
2023-05-01T18:09:45.521Z,14.30
2023-05-01T18:12:13.133Z,14.60
2023-05-01T18:14:40.983Z,15.10
2023-05-01T18:17:09.014Z,15.60
2023-05-01T18:19:36.785Z,15.90
2023-05-01T18:22:04.457Z,16.10
2023-05-01T18:24:32.128Z,15.90
2023-05-01T18:27:00.105Z,15.60
2023-05-01T18:29:27.838Z,15.20
2023-05-01T18:31:55.613Z,14.80
2023-05-01T18:34:23.553Z,14.40
2023-05-01T18:36:59.761Z,14.10
2023-05-01T18:39:31.829Z,13.80
